createdAt,value
2023-08-05T00:00:16.940Z,27.41
2023-08-05T00:01:19.704Z,27.41
2023-08-05T00:02:22.450Z,27.41
2023-08-05T00:03:25.291Z,27.41
2023-08-05T00:04:28.176Z,27.39
2023-08-05T00:05:30.898Z,27.39
2023-08-05T00:06:33.617Z,27.39
2023-08-05T00:07:36.346Z,27.39
2023-08-05T00:08:39.064Z,27.39
2023-08-05T00:09:41.828Z,27.38
2023-08-05T00:10:45.734Z,27.37
2023-08-05T00:11:48.437Z,27.39
2023-08-05T00:12:51.182Z,27.36
2023-08-05T00:13:53.927Z,27.37
2023-08-05T00:14:56.646Z,27.37
2023-08-05T00:15:59.391Z,27.37
2023-08-05T00:17:02.136Z,27.36
2023-08-05T00:18:04.960Z,27.36
2023-08-05T00:19:07.722Z,27.35
2023-08-05T00:20:12.982Z,27.35
2023-08-05T00:21:15.738Z,27.35
2023-08-05T00:22:18.764Z,27.34
2023-08-05T00:23:21.515Z,27.34
2023-08-05T00:24:24.257Z,27.34
2023-08-05T00:25:27.117Z,27.34
2023-08-05T00:26:29.824Z,27.32
2023-08-05T00:27:32.635Z,27.33
2023-08-05T00:28:35.366Z,27.32
2023-08-05T00:29:38.099Z,27.31
2023-08-05T00:30:40.850Z,27.32
2023-08-05T00:31:43.638Z,27.32
2023-08-05T00:32:46.398Z,27.31
2023-08-05T00:33:49.514Z,27.32
2023-08-05T00:34:52.231Z,27.31
2023-08-05T00:35:54.966Z,27.30
2023-08-05T00:36:57.706Z,27.30
2023-08-05T00:38:00.433Z,27.29
2023-08-05T00:39:03.178Z,27.29
2023-08-05T00:40:06.859Z,27.28
2023-08-05T00:41:10.181Z,27.27
2023-08-05T00:42:13.449Z,27.27
2023-08-05T00:43:16.260Z,27.27
2023-08-05T00:44:18.991Z,27.26
2023-08-05T00:45:21.957Z,27.26
2023-08-05T00:46:25.101Z,27.26
2023-08-05T00:47:27.988Z,27.25
2023-08-05T00:48:30.758Z,27.25
2023-08-05T00:49:34.620Z,27.25
2023-08-05T00:50:38.968Z,27.25
2023-08-05T00:51:42.023Z,27.24
2023-08-05T00:52:44.993Z,27.21
2023-08-05T00:53:49.402Z,27.22
2023-08-05T00:54:52.785Z,27.22
2023-08-05T00:55:55.969Z,27.21
2023-08-05T00:56:58.660Z,27.20
2023-08-05T00:58:01.441Z,27.19
2023-08-05T00:59:04.201Z,27.20
2023-08-05T01:00:07.937Z,27.19
2023-08-05T01:01:11.609Z,27.19
2023-08-05T01:02:14.356Z,27.18
2023-08-05T01:03:17.319Z,27.17
2023-08-05T01:04:20.278Z,27.17
2023-08-05T01:05:25.479Z,27.17
2023-08-05T01:06:28.940Z,27.16
2023-08-05T01:07:33.962Z,27.16
2023-08-05T01:08:37.813Z,27.16
2023-08-05T01:09:40.787Z,27.15
2023-08-05T01:10:44.760Z,27.14
2023-08-05T01:11:47.622Z,27.15
2023-08-05T01:12:51.139Z,27.14
2023-08-05T01:13:53.873Z,27.14
2023-08-05T01:14:56.612Z,27.13
2023-08-05T01:15:59.768Z,27.13
2023-08-05T01:17:03.342Z,27.12
2023-08-05T01:18:09.609Z,27.11
2023-08-05T01:19:21.025Z,27.11
2023-08-05T01:20:32.000Z,27.11
2023-08-05T01:21:43.571Z,27.11
2023-08-05T01:22:52.059Z,27.10
2023-08-05T01:24:21.318Z,27.10
2023-08-05T01:25:42.955Z,27.09
2023-08-05T01:38:13.389Z,26.57
2023-08-05T01:39:15.906Z,26.52
2023-08-05T01:40:18.621Z,26.49
2023-08-05T01:41:21.481Z,26.48
2023-08-05T01:42:24.816Z,26.48
2023-08-05T01:43:27.536Z,26.48
2023-08-05T01:44:30.277Z,26.48
2023-08-05T01:45:33.005Z,26.49
2023-08-05T01:46:35.832Z,26.50
2023-08-05T01:47:39.366Z,26.52
2023-08-05T01:48:42.127Z,26.54
2023-08-05T01:49:44.937Z,26.55
2023-08-05T01:50:47.646Z,26.56
2023-08-05T01:51:50.394Z,26.58
2023-08-05T01:52:54.654Z,26.58
2023-08-05T01:53:57.465Z,26.59
2023-08-05T01:55:00.201Z,26.61
2023-08-05T01:56:02.965Z,26.62
2023-08-05T01:57:06.155Z,26.64
2023-08-05T01:58:27.650Z,26.66
2023-08-05T01:59:30.458Z,26.66
2023-08-05T02:00:33.169Z,26.68
2023-08-05T02:01:46.422Z,26.67
2023-08-05T02:02:49.240Z,26.69
2023-08-05T02:03:52.199Z,26.71
2023-08-05T02:04:55.338Z,26.71
2023-08-05T02:05:58.126Z,26.71
2023-08-05T02:07:00.871Z,26.73
2023-08-05T02:08:03.622Z,26.73
2023-08-05T02:09:06.530Z,26.73
2023-08-05T02:10:09.425Z,26.75
2023-08-05T02:11:12.181Z,26.74
2023-08-05T02:12:15.013Z,26.75
2023-08-05T02:13:17.751Z,26.75
2023-08-05T02:14:20.464Z,26.76
2023-08-05T02:15:23.189Z,26.77
2023-08-05T02:16:25.919Z,26.76
2023-08-05T02:17:28.760Z,26.76
2023-08-05T02:18:31.481Z,26.76
2023-08-05T02:19:34.232Z,26.77
2023-08-05T02:20:36.958Z,26.78
2023-08-05T02:21:39.891Z,26.77
2023-08-05T02:22:42.622Z,26.78
2023-08-05T02:23:45.325Z,26.78
2023-08-05T02:24:48.095Z,26.78
2023-08-05T02:25:50.814Z,26.77
2023-08-05T02:26:53.771Z,26.78
2023-08-05T02:27:56.605Z,26.79
2023-08-05T02:28:59.576Z,26.78
2023-08-05T02:30:02.318Z,26.78
2023-08-05T02:31:05.100Z,26.78
2023-08-05T02:32:07.983Z,26.78
2023-08-05T02:33:10.701Z,26.79
2023-08-05T02:34:15.008Z,26.79
2023-08-05T02:35:17.885Z,26.79
2023-08-05T02:36:20.594Z,26.78
2023-08-05T02:37:25.916Z,26.78
2023-08-05T02:38:30.085Z,26.78
2023-08-05T02:39:33.662Z,26.78
2023-08-05T02:40:36.744Z,26.79
2023-08-05T02:41:41.182Z,26.78
2023-08-05T02:42:46.058Z,26.78
2023-08-05T02:43:49.006Z,26.78
2023-08-05T02:44:51.889Z,26.78
2023-08-05T02:45:58.885Z,26.79
2023-08-05T02:47:01.604Z,26.78
2023-08-05T02:48:04.645Z,26.79
2023-08-05T02:49:09.802Z,26.77
2023-08-05T02:50:12.525Z,26.78
2023-08-05T02:51:15.267Z,26.77
2023-08-05T02:52:18.022Z,26.78
2023-08-05T02:53:21.384Z,26.77
2023-08-05T02:54:24.138Z,26.77
2023-08-05T02:55:28.501Z,26.76
2023-08-05T02:56:31.344Z,26.76
2023-08-05T02:57:34.143Z,26.77
2023-08-05T02:58:36.853Z,26.76
2023-08-05T02:59:39.599Z,26.76
2023-08-05T03:00:42.534Z,26.76
2023-08-05T03:01:45.774Z,26.76
2023-08-05T03:02:49.642Z,26.76
2023-08-05T03:03:52.450Z,26.76
2023-08-05T03:04:55.210Z,26.76
2023-08-05T03:05:57.949Z,26.76
2023-08-05T03:07:00.713Z,26.75
2023-08-05T03:08:03.732Z,26.75
2023-08-05T03:09:06.476Z,26.75
2023-08-05T03:10:09.382Z,26.75
2023-08-05T03:11:12.130Z,26.75
2023-08-05T03:12:14.890Z,26.74
2023-08-05T03:13:19.391Z,26.75
2023-08-05T03:14:22.928Z,26.74
2023-08-05T03:15:29.934Z,26.75
2023-08-05T03:16:36.268Z,26.74
2023-08-05T03:17:49.975Z,26.73
2023-08-05T03:18:55.202Z,26.74
2023-08-05T03:19:58.822Z,26.73
2023-08-05T03:21:01.541Z,26.73
2023-08-05T03:22:05.134Z,26.73
2023-08-05T03:23:08.285Z,26.74
2023-08-05T03:24:12.664Z,26.73
2023-08-05T03:25:18.784Z,26.72
2023-08-05T03:26:21.517Z,26.73
2023-08-05T03:27:24.305Z,26.72
2023-08-05T03:28:28.280Z,26.72
2023-08-05T03:29:31.035Z,26.73
2023-08-05T03:30:33.837Z,26.71
2023-08-05T03:31:36.870Z,26.72
2023-08-05T03:32:41.304Z,26.72
2023-08-05T03:33:44.565Z,26.72
2023-08-05T03:34:49.939Z,26.72
2023-08-05T03:35:53.738Z,26.72
2023-08-05T03:36:59.242Z,26.70
2023-08-05T03:38:03.500Z,26.70
2023-08-05T03:39:06.287Z,26.70
2023-08-05T03:40:09.439Z,26.70
2023-08-05T03:41:12.227Z,26.71
2023-08-05T03:42:14.940Z,26.71
2023-08-05T03:43:17.670Z,26.70
2023-08-05T03:44:20.395Z,26.70
2023-08-05T03:45:23.155Z,26.70
2023-08-05T03:46:25.899Z,26.70
2023-08-05T03:47:29.464Z,26.69
2023-08-05T03:48:32.222Z,26.69
2023-08-05T03:49:35.034Z,26.69
2023-08-05T03:50:37.772Z,26.69
2023-08-05T03:51:40.493Z,26.68
2023-08-05T03:52:44.213Z,26.68
2023-08-05T03:53:46.967Z,26.68
2023-08-05T03:54:49.681Z,26.67
2023-08-05T03:55:52.411Z,26.67
2023-08-05T03:56:59.293Z,26.67
2023-08-05T03:58:02.615Z,26.68
2023-08-05T03:59:05.473Z,26.67
2023-08-05T04:00:13.143Z,26.67
2023-08-05T04:01:18.419Z,26.66
2023-08-05T04:02:21.325Z,26.67
2023-08-05T04:03:25.762Z,26.67
2023-08-05T04:04:28.513Z,26.66
2023-08-05T04:05:33.951Z,26.67
2023-08-05T04:06:36.732Z,26.66
2023-08-05T04:07:39.528Z,26.66
2023-08-05T04:08:42.253Z,26.66
2023-08-05T04:09:45.441Z,26.66
2023-08-05T04:10:48.161Z,26.66
2023-08-05T04:11:51.054Z,26.65
2023-08-05T04:12:53.913Z,26.64
2023-08-05T04:13:59.728Z,26.65
2023-08-05T04:15:04.088Z,26.66
2023-08-05T04:16:10.036Z,26.65
2023-08-05T04:17:16.193Z,26.65
2023-08-05T04:18:18.936Z,26.65
2023-08-05T04:19:23.457Z,26.65
2023-08-05T04:20:26.475Z,26.65
2023-08-05T04:21:34.292Z,26.66
2023-08-05T04:22:37.833Z,26.66
2023-08-05T04:23:42.588Z,26.65
2023-08-05T04:24:46.481Z,26.65
2023-08-05T04:25:49.251Z,26.64
2023-08-05T04:26:52.467Z,26.64
2023-08-05T04:27:55.914Z,26.64
2023-08-05T04:28:58.700Z,26.64
2023-08-05T04:30:03.562Z,26.65
2023-08-05T04:31:06.403Z,26.63
2023-08-05T04:32:09.137Z,26.64
2023-08-05T04:33:12.346Z,26.64
2023-08-05T04:34:15.226Z,26.64
2023-08-05T04:35:17.940Z,26.64
2023-08-05T04:36:20.715Z,26.64
2023-08-05T04:37:23.632Z,26.63
2023-08-05T04:38:26.399Z,26.64
2023-08-05T04:39:29.130Z,26.63
2023-08-05T04:40:33.004Z,26.64
2023-08-05T04:41:35.763Z,26.63
2023-08-05T04:42:38.509Z,26.64
2023-08-05T04:43:41.268Z,26.64
2023-08-05T04:44:44.030Z,26.63
2023-08-05T04:45:51.848Z,26.64
2023-08-05T04:46:54.615Z,26.64
2023-08-05T04:47:57.389Z,26.64
2023-08-05T04:49:00.113Z,26.63
2023-08-05T04:50:03.100Z,26.64
2023-08-05T04:51:05.893Z,26.63
2023-08-05T04:52:09.429Z,26.64
2023-08-05T04:53:13.761Z,26.64
2023-08-05T04:54:16.639Z,26.63
2023-08-05T04:55:19.394Z,26.62
2023-08-05T04:56:26.415Z,26.63
2023-08-05T04:57:29.131Z,26.63
2023-08-05T04:58:32.402Z,26.64
2023-08-05T04:59:35.470Z,26.64
2023-08-05T05:00:38.325Z,26.63
2023-08-05T05:01:41.033Z,26.64
2023-08-05T05:02:43.845Z,26.64
2023-08-05T05:03:47.779Z,26.64
2023-08-05T05:04:50.532Z,26.64
2023-08-05T05:05:53.229Z,26.64
2023-08-05T05:06:55.945Z,26.64
2023-08-05T05:07:58.683Z,26.65
2023-08-05T05:09:01.394Z,26.65
2023-08-05T05:10:04.238Z,26.64
2023-08-05T05:11:08.539Z,26.65
2023-08-05T05:12:11.371Z,26.65
2023-08-05T05:13:14.189Z,26.64
2023-08-05T05:14:16.909Z,26.65
2023-08-05T05:15:22.774Z,26.65
2023-08-05T05:16:25.559Z,26.65
2023-08-05T05:17:34.372Z,26.66
2023-08-05T05:18:37.153Z,26.65
2023-08-05T05:19:40.130Z,26.66
2023-08-05T05:20:42.873Z,26.66
2023-08-05T05:21:45.587Z,26.66
2023-08-05T05:22:48.279Z,26.67
2023-08-05T05:23:51.035Z,26.66
2023-08-05T05:24:53.756Z,26.66
2023-08-05T05:25:56.508Z,26.67
2023-08-05T05:26:59.230Z,26.67
2023-08-05T05:28:02.018Z,26.67
2023-08-05T05:29:04.816Z,26.68
2023-08-05T05:30:08.015Z,26.68
2023-08-05T05:31:10.842Z,26.68
2023-08-05T05:32:13.619Z,26.69
2023-08-05T05:33:16.392Z,26.69
2023-08-05T05:34:19.133Z,26.69
2023-08-05T05:35:21.845Z,26.69
2023-08-05T05:36:25.348Z,26.70
2023-08-05T05:37:29.011Z,26.71
2023-08-05T05:38:31.721Z,26.71
2023-08-05T05:39:34.451Z,26.71
2023-08-05T05:40:41.481Z,26.71
2023-08-05T05:41:44.334Z,26.71
2023-08-05T05:42:49.306Z,26.72
2023-08-05T05:43:52.191Z,26.71
2023-08-05T05:44:54.975Z,26.72
2023-08-05T05:45:57.747Z,26.72
2023-08-05T05:47:00.525Z,26.72
2023-08-05T05:48:04.191Z,26.72
2023-08-05T05:49:07.950Z,26.72
2023-08-05T05:50:10.673Z,26.73
2023-08-05T05:51:13.418Z,26.74
2023-08-05T05:52:17.846Z,26.74
2023-08-05T05:53:20.628Z,26.74
2023-08-05T05:54:23.642Z,26.74
2023-08-05T05:55:26.415Z,26.74
2023-08-05T05:56:29.224Z,26.74
2023-08-05T05:57:31.967Z,26.75
2023-08-05T05:58:35.804Z,26.75
2023-08-05T05:59:40.261Z,26.76
2023-08-05T06:00:44.045Z,26.76
2023-08-05T06:01:46.812Z,26.77
2023-08-05T06:02:49.672Z,26.76
2023-08-05T06:03:52.563Z,26.78
2023-08-05T06:04:55.455Z,26.77
2023-08-05T06:05:59.697Z,26.77
2023-08-05T06:07:03.847Z,26.78
2023-08-05T06:08:06.572Z,26.79
2023-08-05T06:09:09.322Z,26.78
2023-08-05T06:10:12.052Z,26.79
2023-08-05T06:11:14.876Z,26.79
2023-08-05T06:12:19.454Z,26.79
2023-08-05T06:13:22.725Z,26.80
2023-08-05T06:14:25.557Z,26.80
2023-08-05T06:15:28.692Z,26.80
2023-08-05T06:16:34.746Z,26.80
2023-08-05T06:17:40.792Z,26.81
2023-08-05T06:18:43.584Z,26.82
2023-08-05T06:19:46.409Z,26.82
2023-08-05T06:20:49.701Z,26.83
2023-08-05T06:21:52.659Z,26.85
2023-08-05T06:22:55.780Z,26.83
2023-08-05T06:23:58.957Z,26.85
2023-08-05T06:25:02.272Z,26.84
2023-08-05T06:26:04.989Z,26.85
2023-08-05T06:27:07.802Z,26.86
2023-08-05T06:28:10.631Z,26.86
2023-08-05T06:29:15.860Z,26.86
2023-08-05T06:30:18.665Z,26.87
2023-08-05T06:31:21.526Z,26.87
2023-08-05T06:32:24.375Z,26.88
2023-08-05T06:33:27.201Z,26.88
2023-08-05T06:34:29.992Z,26.89
2023-08-05T06:35:35.749Z,26.89
2023-08-05T06:36:38.468Z,26.90
2023-08-05T06:37:41.382Z,26.90
2023-08-05T06:38:44.112Z,26.91
2023-08-05T06:39:46.853Z,26.92
2023-08-05T06:40:52.651Z,26.93
2023-08-05T06:41:55.410Z,26.93
2023-08-05T06:43:04.433Z,26.94
2023-08-05T06:44:07.154Z,26.96
2023-08-05T06:45:10.149Z,26.96
2023-08-05T06:46:12.875Z,26.97
2023-08-05T06:47:15.632Z,26.99
2023-08-05T06:48:18.340Z,26.99
2023-08-05T06:49:21.080Z,27.00
2023-08-05T06:50:23.808Z,27.00
2023-08-05T06:51:28.139Z,27.02
2023-08-05T06:52:30.892Z,27.01
2023-08-05T06:53:34.577Z,27.02
2023-08-05T06:54:37.289Z,27.03
2023-08-05T06:55:40.085Z,27.03
2023-08-05T06:56:42.966Z,27.03
2023-08-05T06:57:49.379Z,27.05
2023-08-05T06:58:52.120Z,27.06
2023-08-05T06:59:54.851Z,27.07
2023-08-05T07:00:58.015Z,27.08
2023-08-05T07:02:01.783Z,27.09
2023-08-05T07:03:04.734Z,27.10
2023-08-05T07:04:07.528Z,27.10
2023-08-05T07:05:10.651Z,27.11
2023-08-05T07:06:13.374Z,27.12
2023-08-05T07:07:16.232Z,27.14
2023-08-05T07:08:18.945Z,27.13
2023-08-05T07:09:21.712Z,27.15
2023-08-05T07:10:27.135Z,27.16
2023-08-05T07:11:29.835Z,27.18
2023-08-05T07:12:32.581Z,27.19
2023-08-05T07:13:35.376Z,27.20
2023-08-05T07:14:39.242Z,27.21
2023-08-05T07:15:42.004Z,27.21
2023-08-05T07:16:44.829Z,27.24
2023-08-05T07:17:47.596Z,27.24
2023-08-05T07:18:50.360Z,27.24
2023-08-05T07:19:53.162Z,27.25
2023-08-05T07:20:56.018Z,27.25
2023-08-05T07:21:58.772Z,27.27
2023-08-05T07:23:01.577Z,27.28
2023-08-05T07:24:04.660Z,27.28
2023-08-05T07:25:07.633Z,27.28
2023-08-05T07:26:10.364Z,27.28
2023-08-05T07:27:13.972Z,27.29
2023-08-05T07:28:16.738Z,27.28
2023-08-05T07:29:20.002Z,27.29
2023-08-05T07:30:22.722Z,27.30
2023-08-05T07:31:25.460Z,27.30
2023-08-05T07:32:30.411Z,27.31
2023-08-05T07:33:33.134Z,27.32
2023-08-05T07:34:36.015Z,27.31
2023-08-05T07:35:38.836Z,27.32
2023-08-05T07:36:43.347Z,27.32
2023-08-05T07:37:48.435Z,27.32
2023-08-05T07:38:52.625Z,27.31
2023-08-05T07:39:58.157Z,27.33
2023-08-05T07:41:00.872Z,27.33
2023-08-05T07:42:05.151Z,27.33
2023-08-05T07:43:10.301Z,27.32
2023-08-05T07:44:13.856Z,27.32
2023-08-05T07:45:20.229Z,27.33
2023-08-05T07:46:22.962Z,27.33
2023-08-05T07:47:26.126Z,27.33
2023-08-05T07:48:28.908Z,27.33
2023-08-05T07:49:31.608Z,27.33
2023-08-05T07:50:35.057Z,27.34
2023-08-05T07:51:37.791Z,27.33
2023-08-05T07:52:40.495Z,27.34
2023-08-05T07:53:43.230Z,27.35
2023-08-05T07:54:45.932Z,27.34
2023-08-05T07:55:49.521Z,27.35
2023-08-05T07:56:53.769Z,27.35
2023-08-05T07:57:56.526Z,27.35
2023-08-05T07:58:59.242Z,27.36
2023-08-05T08:00:02.667Z,27.36
2023-08-05T08:01:20.916Z,27.38
2023-08-05T08:02:25.953Z,27.37
2023-08-05T08:03:30.525Z,27.38
2023-08-05T08:04:35.757Z,27.37
2023-08-05T08:05:38.493Z,27.37
2023-08-05T08:06:41.258Z,27.38
2023-08-05T08:07:48.051Z,27.38
2023-08-05T08:08:50.986Z,27.38
2023-08-05T08:09:53.747Z,27.39
2023-08-05T08:10:56.525Z,27.39
2023-08-05T08:11:59.555Z,27.39
2023-08-05T08:13:02.676Z,27.40
2023-08-05T08:14:05.803Z,27.40
2023-08-05T08:15:08.898Z,27.40
2023-08-05T08:16:11.873Z,27.41
2023-08-05T08:17:14.819Z,27.42
2023-08-05T08:18:17.571Z,27.42
2023-08-05T08:19:20.336Z,27.42
2023-08-05T08:20:23.093Z,27.42
2023-08-05T08:21:25.839Z,27.42
2023-08-05T08:22:28.734Z,27.43
2023-08-05T08:23:31.454Z,27.41
2023-08-05T08:24:34.171Z,27.43
2023-08-05T08:25:37.943Z,27.43
2023-08-05T08:26:40.765Z,27.43
2023-08-05T08:27:43.500Z,27.43
2023-08-05T08:28:46.210Z,27.43
2023-08-05T08:29:49.368Z,27.44
2023-08-05T08:30:56.815Z,27.44
2023-08-05T08:31:59.575Z,27.44
2023-08-05T08:33:02.439Z,27.43
2023-08-05T08:34:05.190Z,27.44
2023-08-05T08:36:28.415Z,27.44
2023-08-05T08:37:31.135Z,27.45
2023-08-05T08:38:33.834Z,27.44
2023-08-05T08:40:59.973Z,27.44
2023-08-05T08:42:02.744Z,27.45
2023-08-05T08:43:05.580Z,27.45
2023-08-05T08:44:10.976Z,27.44
2023-08-05T08:45:16.693Z,27.45
2023-08-05T08:46:21.543Z,27.45
2023-08-05T08:47:25.423Z,27.45
2023-08-05T08:48:30.474Z,27.44
2023-08-05T08:49:37.166Z,27.46
2023-08-05T08:50:41.889Z,27.45
2023-08-05T08:51:48.334Z,27.46
2023-08-05T08:52:53.776Z,27.46
2023-08-05T08:53:57.500Z,27.46
2023-08-05T08:55:00.484Z,27.47
2023-08-05T08:56:03.881Z,27.46
2023-08-05T08:57:07.163Z,27.46
2023-08-05T08:58:13.457Z,27.47
2023-08-05T08:59:16.186Z,27.47
2023-08-05T09:00:18.921Z,27.48
2023-08-05T09:01:22.842Z,27.48
2023-08-05T09:02:26.588Z,27.49
2023-08-05T09:03:33.646Z,27.49
2023-08-05T09:04:38.115Z,27.50
2023-08-05T09:05:50.021Z,27.49
2023-08-05T09:06:54.481Z,27.52
2023-08-05T09:08:00.107Z,27.52
2023-08-05T09:09:04.427Z,27.52
2023-08-05T09:10:07.889Z,27.52
2023-08-05T09:11:10.621Z,27.53
2023-08-05T09:12:13.369Z,27.52
2023-08-05T09:13:20.848Z,27.52
2023-08-05T09:14:23.655Z,27.54
2023-08-05T09:15:34.381Z,27.54
2023-08-05T09:16:57.797Z,27.55
2023-08-05T09:18:01.935Z,27.55
2023-08-05T09:19:04.669Z,27.55
2023-08-05T09:20:26.156Z,27.58
2023-08-05T09:21:29.548Z,27.56
2023-08-05T09:22:32.280Z,27.56
2023-08-05T09:23:46.338Z,27.59
2023-08-05T09:24:49.256Z,27.58
2023-08-05T09:25:53.564Z,27.60
2023-08-05T09:26:58.239Z,27.60
2023-08-05T09:28:05.772Z,27.60
2023-08-05T09:29:09.489Z,27.61
2023-08-05T09:30:17.700Z,27.61
2023-08-05T09:31:20.601Z,27.63
2023-08-05T09:32:36.308Z,27.64
2023-08-05T09:33:43.292Z,27.64
2023-08-05T09:34:51.087Z,27.64
2023-08-05T09:35:54.262Z,27.65
2023-08-05T09:36:57.070Z,27.65
2023-08-05T09:38:02.511Z,27.65
2023-08-05T09:39:11.763Z,27.65
2023-08-05T09:40:23.738Z,27.66
2023-08-05T09:41:34.095Z,27.66
2023-08-05T09:42:39.073Z,27.68
2023-08-05T09:43:44.820Z,27.68
2023-08-05T09:44:54.161Z,27.67
2023-08-05T09:45:57.213Z,27.68
2023-08-05T09:47:03.966Z,27.67
2023-08-05T09:48:10.913Z,27.68
2023-08-05T09:49:18.568Z,27.69
2023-08-05T09:50:21.930Z,27.68
2023-08-05T09:51:28.436Z,27.68
2023-08-05T09:52:34.916Z,27.69
2023-08-05T09:53:40.736Z,27.69
2023-08-05T09:54:45.857Z,27.68
2023-08-05T09:55:49.170Z,27.69
2023-08-05T09:56:52.184Z,27.68
2023-08-05T09:57:55.919Z,27.69
2023-08-05T09:58:59.138Z,27.69
2023-08-05T10:00:06.853Z,27.69
2023-08-05T10:01:12.391Z,27.69
2023-08-05T10:02:21.560Z,27.70
2023-08-05T10:03:27.352Z,27.70
2023-08-05T10:04:30.776Z,27.71
2023-08-05T10:05:35.680Z,27.70
2023-08-05T10:06:42.233Z,27.72
2023-08-05T10:07:45.023Z,27.71
2023-08-05T10:08:49.715Z,27.71
2023-08-05T10:09:53.562Z,27.72
2023-08-05T10:10:57.335Z,27.72
2023-08-05T10:12:02.608Z,27.73
2023-08-05T10:13:18.717Z,27.73
2023-08-05T10:14:22.014Z,27.73
2023-08-05T10:15:29.737Z,27.73
2023-08-05T10:16:33.076Z,27.73
2023-08-05T10:17:40.823Z,27.74
2023-08-05T10:18:43.733Z,27.75
2023-08-05T10:19:52.069Z,27.75
2023-08-05T10:20:55.169Z,27.74
2023-08-05T10:22:13.316Z,27.75
2023-08-05T10:23:16.048Z,27.77
2023-08-05T10:24:19.297Z,27.77
2023-08-05T10:25:38.676Z,27.76
2023-08-05T10:26:46.245Z,27.77
2023-08-05T10:27:48.964Z,27.77
2023-08-05T10:28:51.660Z,27.78
2023-08-05T10:29:55.282Z,27.78
2023-08-05T10:30:58.090Z,27.78
2023-08-05T10:32:11.688Z,27.79
2023-08-05T10:33:14.431Z,27.79
2023-08-05T10:34:19.483Z,27.79
2023-08-05T10:35:32.801Z,27.79
2023-08-05T10:36:43.762Z,27.79
2023-08-05T10:37:50.495Z,27.79
2023-08-05T10:38:53.217Z,27.80
2023-08-05T10:40:02.102Z,27.80
2023-08-05T10:41:04.915Z,27.81
2023-08-05T10:42:31.935Z,27.82
2023-08-05T10:43:35.644Z,27.81
2023-08-05T10:44:38.846Z,27.81
2023-08-05T10:45:41.780Z,27.82
2023-08-05T10:46:44.643Z,27.82
2023-08-05T10:47:49.020Z,27.84
2023-08-05T10:48:51.947Z,27.84
2023-08-05T10:50:01.421Z,27.84
2023-08-05T10:51:09.404Z,27.85
2023-08-05T10:52:21.310Z,27.85
2023-08-05T10:53:24.038Z,27.85
2023-08-05T10:54:26.836Z,27.86
2023-08-05T10:55:29.597Z,27.87
2023-08-05T10:56:38.661Z,27.87
2023-08-05T10:57:41.770Z,27.87
2023-08-05T10:58:50.525Z,27.88
2023-08-05T11:00:04.194Z,27.89
2023-08-05T11:01:07.794Z,27.89
2023-08-05T11:02:23.785Z,27.90
2023-08-05T11:03:44.254Z,27.90
2023-08-05T11:04:48.587Z,27.90
2023-08-05T11:05:51.892Z,27.91
2023-08-05T11:06:56.093Z,27.91
2023-08-05T11:07:58.803Z,27.91
2023-08-05T11:09:02.181Z,27.92
2023-08-05T11:10:06.777Z,27.91
2023-08-05T11:11:14.723Z,27.92
2023-08-05T11:12:20.269Z,27.92
2023-08-05T11:13:23.103Z,27.93
2023-08-05T11:14:28.364Z,27.92
2023-08-05T11:15:31.119Z,27.92
2023-08-05T11:16:33.936Z,27.91
2023-08-05T11:17:54.305Z,27.92
2023-08-05T11:18:58.617Z,27.92
2023-08-05T11:20:01.307Z,27.92
2023-08-05T11:21:06.935Z,27.91
2023-08-05T11:22:09.742Z,27.91
2023-08-05T11:23:13.434Z,27.90
2023-08-05T11:24:19.564Z,27.91
2023-08-05T11:25:22.388Z,27.92
2023-08-05T11:26:25.126Z,27.91
2023-08-05T11:27:35.979Z,27.91
2023-08-05T11:28:46.154Z,27.91
2023-08-05T11:30:01.894Z,27.91
2023-08-05T11:31:06.242Z,27.92
2023-08-05T11:32:08.925Z,27.91
2023-08-05T11:33:11.702Z,27.92
2023-08-05T11:34:23.994Z,27.92
2023-08-05T11:35:27.986Z,27.92
2023-08-05T11:36:31.180Z,27.93
2023-08-05T11:37:37.849Z,27.93
2023-08-05T11:38:40.824Z,27.94
2023-08-05T11:39:43.538Z,27.95
2023-08-05T11:40:57.214Z,27.96
2023-08-05T11:42:01.998Z,27.96
2023-08-05T11:43:07.017Z,27.97
2023-08-05T11:44:09.726Z,27.98
2023-08-05T11:45:13.777Z,27.98
2023-08-05T11:46:27.337Z,28.00
2023-08-05T11:47:31.154Z,28.00
2023-08-05T11:48:34.135Z,28.00
2023-08-05T11:49:36.865Z,28.01
2023-08-05T11:50:39.593Z,28.02
2023-08-05T11:51:48.645Z,28.02
2023-08-05T11:53:07.961Z,28.02
2023-08-05T11:54:11.575Z,28.04
2023-08-05T11:55:15.331Z,28.02
2023-08-05T11:56:24.653Z,28.04
2023-08-05T11:57:28.367Z,28.05
2023-08-05T11:58:34.365Z,28.06
2023-08-05T11:59:38.913Z,28.06
2023-08-05T12:00:47.015Z,28.08
2023-08-05T12:01:49.855Z,28.08
2023-08-05T12:02:53.212Z,28.09
2023-08-05T12:03:59.208Z,28.10
2023-08-05T12:05:05.163Z,28.11
2023-08-05T12:06:09.614Z,28.12
2023-08-05T12:07:18.759Z,28.14
2023-08-05T12:08:41.174Z,28.14
2023-08-05T12:10:06.506Z,28.16
2023-08-05T12:11:09.826Z,28.18
2023-08-05T12:12:30.322Z,28.18
2023-08-05T12:13:35.307Z,28.19
2023-08-05T12:14:37.994Z,28.20
2023-08-05T12:15:40.742Z,28.20
2023-08-05T12:16:43.472Z,28.22
2023-08-05T12:17:51.242Z,28.23
2023-08-05T12:18:54.000Z,28.24
2023-08-05T12:19:58.802Z,28.25
2023-08-05T12:21:03.296Z,28.25
2023-08-05T12:22:06.000Z,28.26
2023-08-05T12:23:08.702Z,28.26
2023-08-05T12:24:11.413Z,28.26
2023-08-05T12:25:14.959Z,28.27
2023-08-05T12:26:26.992Z,28.28
2023-08-05T12:27:29.722Z,28.27
2023-08-05T12:28:32.416Z,28.28
2023-08-05T12:29:35.142Z,28.28
2023-08-05T12:30:37.895Z,28.29
2023-08-05T12:31:40.660Z,28.28
2023-08-05T12:32:43.409Z,28.28
2023-08-05T12:33:46.236Z,28.29
2023-08-05T12:34:48.968Z,28.29
2023-08-05T12:35:51.725Z,28.29
2023-08-05T12:36:54.454Z,28.29
2023-08-05T12:37:58.665Z,28.29
2023-08-05T12:39:02.268Z,28.29
2023-08-05T12:40:07.012Z,28.28
2023-08-05T12:41:09.723Z,28.28
2023-08-05T12:42:12.412Z,28.28
2023-08-05T12:43:17.969Z,28.28
2023-08-05T12:44:20.820Z,28.28
2023-08-05T12:45:23.568Z,28.27
2023-08-05T12:46:26.305Z,28.28
2023-08-05T12:47:29.054Z,28.27
2023-08-05T12:48:31.784Z,28.28
2023-08-05T12:49:34.491Z,28.27
2023-08-05T12:50:37.254Z,28.27
2023-08-05T12:51:39.954Z,28.28
2023-08-05T12:52:42.652Z,28.27
2023-08-05T12:53:45.471Z,28.27
2023-08-05T12:54:48.243Z,28.28
2023-08-05T12:55:51.026Z,28.28
2023-08-05T12:56:53.768Z,28.27
2023-08-05T12:57:56.633Z,28.28
2023-08-05T12:58:59.435Z,28.27
2023-08-05T13:00:02.592Z,28.27
2023-08-05T13:01:05.590Z,28.28
2023-08-05T13:02:08.468Z,28.28
2023-08-05T13:03:11.539Z,28.27
2023-08-05T13:04:14.435Z,28.28
2023-08-05T13:05:17.146Z,28.29
2023-08-05T13:06:20.313Z,28.29
2023-08-05T13:07:23.219Z,28.30
2023-08-05T13:08:25.971Z,28.30
2023-08-05T13:09:30.765Z,28.32
2023-08-05T13:10:35.778Z,28.35
2023-08-05T13:11:38.488Z,28.35
2023-08-05T13:12:41.194Z,28.36
2023-08-05T13:13:43.888Z,28.39
2023-08-05T13:14:46.674Z,28.40
2023-08-05T13:15:49.540Z,28.42
2023-08-05T13:16:52.334Z,28.44
2023-08-05T13:17:55.333Z,28.46
2023-08-05T13:18:58.054Z,28.48
2023-08-05T13:20:00.773Z,28.50
2023-08-05T13:21:03.497Z,28.52
2023-08-05T13:22:06.582Z,28.54
2023-08-05T13:23:09.366Z,28.55
2023-08-05T13:24:12.188Z,28.58
2023-08-05T13:25:14.952Z,28.60
2023-08-05T13:26:17.648Z,28.62
2023-08-05T13:27:22.638Z,28.63
2023-08-05T13:28:25.392Z,28.64
2023-08-05T13:29:28.141Z,28.67
2023-08-05T13:30:30.858Z,28.68
2023-08-05T13:31:33.614Z,28.69
2023-08-05T13:32:36.355Z,28.71
2023-08-05T13:33:40.892Z,28.73
2023-08-05T13:34:43.626Z,28.76
2023-08-05T13:35:47.830Z,28.78
2023-08-05T13:36:51.241Z,28.80
2023-08-05T13:37:53.992Z,28.83
2023-08-05T13:38:56.742Z,28.87
2023-08-05T13:39:59.472Z,28.88
2023-08-05T13:41:02.650Z,28.90
2023-08-05T13:42:05.809Z,28.92
2023-08-05T13:43:08.653Z,28.94
2023-08-05T13:44:11.423Z,28.95
2023-08-05T13:45:14.230Z,28.97
2023-08-05T13:46:16.965Z,28.98
2023-08-05T13:47:19.696Z,28.99
2023-08-05T13:48:23.976Z,29.02
2023-08-05T13:49:26.735Z,29.02
2023-08-05T13:50:29.496Z,29.02
2023-08-05T13:51:32.520Z,29.04
2023-08-05T13:52:35.550Z,29.04
2023-08-05T13:53:38.950Z,29.06
2023-08-05T13:54:41.715Z,29.05
2023-08-05T13:55:54.968Z,29.04
2023-08-05T13:56:57.781Z,29.05
2023-08-05T13:58:00.689Z,29.05
2023-08-05T13:59:03.477Z,29.05
2023-08-05T14:00:07.155Z,29.05
2023-08-05T14:01:16.306Z,29.05